Time;durP1;ratioP1;P1;durP2;ratioP2;P2;SDS_P1;SDS_P2;PMS_P1;PMS_P2;Temp;Humidity;BMP_temperature;BMP_pressure;BME280_temperature;BME280_humidity;BME280_pressure;Samples;Min_cycle;Max_cycle;Signal;HPM_P1;HPM_P2
2023/09/21 00:02:12;;;;;;;10.00;3.15;;;;;;;17.31;93.56;99801.41;6211062;23;20060;-67
2023/09/21 00:04:38;;;;;;;12.63;3.50;;;;;;;17.32;93.05;99802.25;6195420;23;20369;-67
2023/09/21 00:07:03;;;;;;;8.93;3.20;;;;;;;17.32;93.19;99800.41;6208643;23;20011;-71
2023/09/21 00:09:29;;;;;;;9.43;3.40;;;;;;;17.32;93.31;99803.13;6209813;23;20001;-68
2023/09/21 00:11:54;;;;;;;7.95;3.20;;;;;;;17.33;93.39;99801.22;6211695;23;20008;-67
2023/09/21 00:14:20;;;;;;;13.98;3.50;;;;;;;17.33;92.71;99796.63;6183552;23;20091;-67
2023/09/21 00:16:45;;;;;;;11.98;3.55;;;;;;;17.33;92.88;99795.81;6210776;23;20011;-67
2023/09/21 00:19:10;;;;;;;10.43;3.45;;;;;;;17.34;92.76;99795.63;6211461;23;20421;-67
2023/09/21 00:21:37;;;;;;;12.40;3.42;;;;;;;17.33;92.88;99788.50;6185069;23;20451;-67
2023/09/21 00:24:03;;;;;;;10.48;3.03;;;;;;;17.33;92.76;99772.19;6211210;23;20007;-67
2023/09/21 00:26:28;;;;;;;14.95;4.03;;;;;;;17.31;92.42;99771.53;6211813;23;20000;-67
2023/09/21 00:28:54;;;;;;;9.77;3.35;;;;;;;17.32;92.87;99767.81;6211359;23;20009;-68
2023/09/21 00:31:19;;;;;;;7.70;3.03;;;;;;;17.31;93.11;99768.84;6211320;23;20067;-67
2023/09/21 00:33:45;;;;;;;8.93;3.30;;;;;;;17.32;92.81;99766.94;6211109;23;20012;-68
2023/09/21 00:36:13;;;;;;;11.60;3.55;;;;;;;17.30;92.34;99751.66;6211671;23;20346;-68
2023/09/21 00:38:38;;;;;;;10.90;3.58;;;;;;;17.30;92.31;99748.13;6211645;23;20012;-68
2023/09/21 00:41:04;;;;;;;13.98;3.50;;;;;;;17.32;93.04;99753.38;6211909;23;20026;-68
2023/09/21 00:43:30;;;;;;;11.82;3.60;;;;;;;17.32;92.91;99745.22;6184841;23;20488;-68
2023/09/21 00:45:57;;;;;;;10.18;3.47;;;;;;;17.32;93.74;99753.38;6184860;23;20016;-67
2023/09/21 00:48:26;;;;;;;7.78;2.90;;;;;;;17.32;92.37;99742.50;6211371;23;20011;-67
2023/09/21 00:50:54;;;;;;;12.43;3.38;;;;;;;17.33;92.85;99742.31;6184216;23;20075;-67
2023/09/21 00:53:21;;;;;;;10.43;3.03;;;;;;;17.32;93.17;99740.66;6210535;23;20000;-68
2023/09/21 00:55:52;;;;;;;9.00;2.95;;;;;;;17.32;92.79;99737.94;6184698;23;20009;-68
2023/09/21 00:58:19;;;;;;;11.07;3.67;;;;;;;17.33;92.23;99733.34;6211581;23;20055;-67
2023/09/21 01:00:46;;;;;;;11.25;3.53;;;;;;;17.34;91.43;99716.88;6210840;23;20015;-68
2023/09/21 01:03:12;;;;;;;7.20;2.63;;;;;;;17.35;90.72;99721.28;6211342;23;20070;-68
2023/09/21 01:05:42;;;;;;;5.88;2.70;;;;;;;17.37;90.74;99718.38;6212686;23;20004;-67
2023/09/21 01:08:17;;;;;;;11.88;3.10;;;;;;;17.39;91.32;99721.72;6186610;23;20057;-67
2023/09/21 01:10:49;;;;;;;9.43;2.90;;;;;;;17.40;90.76;99718.84;6213023;23;20456;-68
2023/09/21 01:13:15;;;;;;;10.25;3.10;;;;;;;17.41;90.01;99709.66;6211859;23;20005;-68
2023/09/21 01:15:48;;;;;;;10.05;3.08;;;;;;;17.44;88.94;99711.19;6212452;23;20102;-67
2023/09/21 01:18:16;;;;;;;8.60;2.92;;;;;;;17.47;88.92;99705.38;6213181;23;20000;-68
2023/09/21 01:20:42;;;;;;;8.65;2.90;;;;;;;17.50;88.06;99693.25;6213162;23;20050;-67
2023/09/21 01:23:12;;;;;;;9.02;3.00;;;;;;;17.52;88.58;99693.94;6212605;23;20008;-67
2023/09/21 01:25:40;;;;;;;10.18;2.75;;;;;;;17.52;88.00;99702.09;6212496;23;20046;-68
2023/09/21 01:28:10;;;;;;;6.22;2.50;;;;;;;17.55;87.85;99697.13;6212680;23;20043;-67
2023/09/21 01:30:38;;;;;;;11.57;2.83;;;;;;;17.57;86.86;99691.50;6212399;23;20089;-67
2023/09/21 01:33:15;;;;;;;5.32;2.40;;;;;;;17.57;87.38;99676.06;6185774;23;20016;-68
2023/09/21 01:35:50;;;;;;;7.47;2.58;;;;;;;17.59;88.00;99678.59;6185671;23;20298;-67
2023/09/21 01:38:17;;;;;;;7.25;2.60;;;;;;;17.59;86.46;99671.25;6212629;23;20035;-67
2023/09/21 01:40:42;;;;;;;8.32;2.72;;;;;;;17.63;86.43;99674.47;6212168;23;20362;-67
2023/09/21 01:43:10;;;;;;;7.65;2.83;;;;;;;17.63;86.98;99680.72;6184971;23;20016;-69
2023/09/21 01:45:39;;;;;;;5.53;2.25;;;;;;;17.63;86.63;99671.75;6211506;23;20275;-68
2023/09/21 01:48:09;;;;;;;8.20;2.75;;;;;;;17.64;86.40;99670.69;6212485;23;20004;-67
2023/09/21 01:50:42;;;;;;;8.88;2.78;;;;;;;17.64;86.42;99665.25;6212649;23;20398;-68
2023/09/21 01:53:09;;;;;;;9.88;2.85;;;;;;;17.64;86.37;99660.69;6213052;23;20392;-67
2023/09/21 01:55:35;;;;;;;8.00;2.97;;;;;;;17.64;87.07;99659.81;6212165;23;20012;-67
2023/09/21 01:58:01;;;;;;;7.65;2.78;;;;;;;17.64;85.75;99659.81;6211798;23;20079;-68
2023/09/21 02:00:27;;;;;;;8.95;2.95;;;;;;;17.64;86.01;99659.81;6185791;23;20031;-67
2023/09/21 02:02:53;;;;;;;9.00;3.00;;;;;;;17.65;85.87;99647.94;6212304;23;20492;-69
2023/09/21 02:05:19;;;;;;;6.68;2.65;;;;;;;17.65;85.49;99656.91;6185399;23;20061;-67
2023/09/21 02:07:45;;;;;;;12.57;3.00;;;;;;;17.66;85.21;99660.50;6186402;23;20132;-68
2023/09/21 02:10:11;;;;;;;5.35;2.40;;;;;;;17.65;85.03;99656.09;6212329;23;20028;-68
2023/09/21 02:12:38;;;;;;;10.45;2.60;;;;;;;17.65;85.25;99646.06;6212286;23;20058;-68
2023/09/21 02:15:11;;;;;;;6.18;2.50;;;;;;;17.64;86.13;99641.66;6183534;23;20005;-68
2023/09/21 02:17:41;;;;;;;8.85;2.60;;;;;;;17.67;84.66;99642.31;6210918;23;20122;-67
2023/09/21 02:20:14;;;;;;;;;;;;;;;17.70;86.68;99648.22;6211368;23;20059;-67
2023/09/21 02:22:57;;;;;;;8.48;2.67;;;;;;;17.67;86.26;99645.03;6210696;23;20219;-73
2023/09/21 02:25:23;;;;;;;9.85;3.03;;;;;;;17.67;85.00;99642.31;6211870;23;20008;-73
2023/09/21 02:27:48;;;;;;;9.00;3.10;;;;;;;17.65;86.50;99637.91;6212994;23;20004;-73
2023/09/21 02:30:21;;;;;;;7.20;2.92;;;;;;;17.65;85.33;99640.63;6211887;23;20447;-73
2023/09/21 02:32:54;;;;;;;9.15;2.50;;;;;;;17.64;85.22;99633.53;6212188;23;20012;-73
2023/09/21 02:35:26;;;;;;;8.45;2.60;;;;;;;17.65;84.34;99634.34;6211679;23;20040;-73
2023/09/21 02:37:53;;;;;;;9.25;2.47;;;;;;;17.66;85.42;99636.03;6212417;23;20015;-73
2023/09/21 02:40:20;;;;;;;8.35;3.15;;;;;;;17.64;84.93;99633.53;6212361;23;20004;-73
2023/09/21 02:42:49;;;;;;;8.65;2.75;;;;;;;17.66;84.92;99630.63;6212598;23;20425;-73
2023/09/21 02:45:15;;;;;;;6.68;2.55;;;;;;;17.66;84.66;99630.63;6211785;23;20009;-73
2023/09/21 02:47:46;;;;;;;7.43;2.72;;;;;;;17.65;85.21;99623.47;6212111;23;20139;-73
2023/09/21 02:50:15;;;;;;;10.57;2.78;;;;;;;17.67;85.36;99626.00;6212183;23;20005;-73
2023/09/21 02:52:46;;;;;;;8.27;2.33;;;;;;;17.65;85.23;99629.75;6212123;23;20004;-73
2023/09/21 02:55:20;;;;;;;7.28;2.78;;;;;;;17.65;85.01;99629.75;6185165;23;20103;-73
2023/09/21 02:57:47;;;;;;;8.45;2.80;;;;;;;17.64;85.14;99625.38;6184867;23;20043;-73
2023/09/21 03:00:20;;;;;;;7.53;2.30;;;;;;;17.63;85.71;99622.84;6185240;23;20012;-73
2023/09/21 03:02:46;;;;;;;9.20;2.72;;;;;;;17.64;85.38;99622.66;6212359;23;20293;-73
2023/09/21 03:05:13;;;;;;;5.43;2.40;;;;;;;17.64;85.06;99622.66;6211927;23;20080;-74
2023/09/21 03:07:43;;;;;;;10.18;2.75;;;;;;;17.64;84.88;99614.50;6211974;23;20322;-73
2023/09/21 03:10:10;;;;;;;9.48;2.60;;;;;;;17.63;85.63;99615.53;6212114;23;20492;-73
2023/09/21 03:12:38;;;;;;;7.95;2.75;;;;;;;17.62;85.43;99608.41;6212279;23;20016;-73
2023/09/21 03:15:14;;;;;;;7.10;2.60;;;;;;;17.63;85.34;99611.97;6211480;23;20012;-73
2023/09/21 03:17:41;;;;;;;9.38;2.50;;;;;;;17.62;84.99;99615.72;6185155;23;20019;-73
2023/09/21 03:20:11;;;;;;;11.82;3.33;;;;;;;17.62;85.86;99613.00;6211986;23;20342;-74
2023/09/21 03:22:38;;;;;;;7.25;2.53;;;;;;;17.63;85.34;99609.25;6212230;23;20004;-73
2023/09/21 03:25:11;;;;;;;10.45;3.22;;;;;;;17.62;85.50;99610.28;6212128;23;20308;-73
2023/09/21 03:27:38;;;;;;;10.57;2.85;;;;;;;17.61;85.51;99605.88;6184526;23;20012;-74
2023/09/21 03:30:05;;;;;;;6.15;2.63;;;;;;;17.61;86.55;99608.59;6211621;23;20454;-73
2023/09/21 03:32:31;;;;;;;4.90;2.53;;;;;;;17.60;86.16;99601.47;6185100;23;20000;-73
2023/09/21 03:34:56;;;;;;;7.07;2.45;;;;;;;17.60;85.13;99604.16;6210988;23;20058;-73
2023/09/21 03:37:22;;;;;;;7.93;2.47;;;;;;;17.60;85.87;99604.16;6212209;23;20043;-73
2023/09/21 03:39:47;;;;;;;8.77;2.78;;;;;;;17.59;85.35;99602.50;6211423;23;20047;-73
2023/09/21 03:42:12;;;;;;;9.60;2.83;;;;;;;17.59;86.05;99603.34;6184948;23;20397;-74
2023/09/21 03:44:42;;;;;;;6.93;2.28;;;;;;;17.60;86.26;99604.16;6211492;23;20007;-74
2023/09/21 03:47:11;;;;;;;8.45;2.70;;;;;;;17.60;86.21;99590.59;6184686;23;20005;-74
2023/09/21 03:49:37;;;;;;;8.05;2.38;;;;;;;17.60;86.43;99596.88;6211214;23;20414;-74
2023/09/21 03:52:03;;;;;;;8.55;2.70;;;;;;;17.61;86.10;99589.56;6211023;23;20391;-73
2023/09/21 03:54:28;;;;;;;10.98;2.70;;;;;;;17.61;85.22;99589.56;6185152;23;20118;-73
2023/09/21 03:56:54;;;;;;;6.72;2.85;;;;;;;17.61;85.64;99590.44;6211574;23;20371;-73
2023/09/21 03:59:19;;;;;;;7.90;2.85;;;;;;;17.63;85.79;99579.38;6184336;23;20000;-73
2023/09/21 04:01:46;;;;;;;6.15;2.65;;;;;;;17.63;86.17;99585.63;6211780;23;20308;-73
2023/09/21 04:04:17;;;;;;;10.80;2.60;;;;;;;17.64;86.14;99583.75;6211489;23;20000;-74
2023/09/21 04:06:43;;;;;;;8.27;2.75;;;;;;;17.65;86.20;99574.56;6211383;23;20004;-73
2023/09/21 04:09:09;;;;;;;9.52;2.65;;;;;;;17.65;85.95;99586.28;6211841;23;20005;-73
2023/09/21 04:11:34;;;;;;;8.38;3.03;;;;;;;17.66;86.50;99576.28;6184986;23;20057;-73
2023/09/21 04:14:00;;;;;;;7.93;2.80;;;;;;;17.65;86.27;99575.41;6211630;23;20330;-73
2023/09/21 04:16:25;;;;;;;9.18;3.05;;;;;;;17.67;85.99;99575.22;6184546;23;20083;-73
2023/09/21 04:18:51;;;;;;;9.35;3.10;;;;;;;17.66;86.43;99579.00;6183874;23;20376;-72
2023/09/21 04:21:16;;;;;;;9.35;3.00;;;;;;;17.66;87.17;99576.28;6210848;23;20284;-73
2023/09/21 04:23:43;;;;;;;9.98;3.08;;;;;;;17.68;87.16;99582.34;6183747;23;20060;-73
2023/09/21 04:26:10;;;;;;;8.38;2.90;;;;;;;17.67;86.97;99586.09;6211453;23;20084;-73
2023/09/21 04:28:35;;;;;;;11.02;3.05;;;;;;;17.67;86.73;99580.66;6182131;23;20429;-74
2023/09/21 04:31:01;;;;;;;7.30;2.67;;;;;;;17.67;86.94;99572.50;6210963;23;20016;-73
2023/09/21 04:33:26;;;;;;;6.95;2.50;;;;;;;17.67;87.64;99567.06;6210754;23;20375;-73
2023/09/21 04:35:51;;;;;;;9.73;3.00;;;;;;;17.68;87.13;99567.94;6183283;23;20005;-73
2023/09/21 04:38:17;;;;;;;12.05;3.17;;;;;;;17.69;87.53;99567.72;6209939;23;20054;-73
2023/09/21 04:40:44;;;;;;;11.82;3.75;;;;;;;17.68;87.29;99562.50;6211706;23;20011;-73
2023/09/21 04:43:09;;;;;;;7.20;2.83;;;;;;;17.68;86.90;99565.22;6211600;23;20008;-72
2023/09/21 04:45:34;;;;;;;10.98;2.83;;;;;;;17.69;87.37;99569.59;6211985;23;20004;-72
2023/09/21 04:48:03;;;;;;;8.55;2.85;;;;;;;17.71;87.71;99564.81;6211670;23;20005;-72
2023/09/21 04:50:28;;;;;;;10.43;3.28;;;;;;;17.71;87.87;99567.53;6185544;23;20001;-73
2023/09/21 04:52:53;;;;;;;11.75;2.80;;;;;;;17.71;88.65;99565.66;6185627;23;20000;-71
2023/09/21 04:55:19;;;;;;;12.20;3.03;;;;;;;17.71;88.76;99568.38;6212860;23;20015;-71
2023/09/21 04:57:45;;;;;;;6.45;2.72;;;;;;;17.71;88.37;99568.38;6213455;23;20079;-72
2023/09/21 05:00:13;;;;;;;6.65;3.00;;;;;;;17.71;89.59;99562.94;6185142;23;20008;-72
2023/09/21 05:02:39;;;;;;;10.88;3.15;;;;;;;17.70;90.34;99558.56;6185861;23;20016;-72
2023/09/21 05:05:05;;;;;;;10.18;2.75;;;;;;;17.70;91.30;99555.84;6212346;23;20501;-72
2023/09/21 05:07:30;;;;;;;9.63;3.00;;;;;;;17.70;91.53;99554.97;6185277;23;20005;-72
2023/09/21 05:09:56;;;;;;;7.20;3.25;;;;;;;17.70;90.89;99557.69;6213313;23;20008;-71
2023/09/21 05:12:21;;;;;;;10.20;2.90;;;;;;;17.68;91.65;99549.75;6212893;23;20013;-72
2023/09/21 05:14:48;;;;;;;11.88;3.28;;;;;;;17.67;91.68;99544.50;6211983;23;20004;-72
2023/09/21 05:17:16;;;;;;;9.85;3.33;;;;;;;17.66;91.64;99532.78;6212998;23;20011;-72
2023/09/21 05:19:42;;;;;;;7.43;2.75;;;;;;;17.66;91.84;99535.50;6210575;23;20442;-72
2023/09/21 05:22:09;;;;;;;7.78;3.25;;;;;;;17.65;91.47;99547.41;6209092;23;20014;-72
2023/09/21 05:24:36;;;;;;;12.88;3.28;;;;;;;17.65;91.74;99547.41;6210877;23;20048;-72
2023/09/21 05:27:02;;;;;;;13.30;3.53;;;;;;;17.66;91.85;99540.94;6185202;23;20001;-71
2023/09/21 05:29:27;;;;;;;8.70;3.15;;;;;;;17.67;91.46;99544.50;6211149;23;20012;-72
2023/09/21 05:31:53;;;;;;;10.70;3.35;;;;;;;17.67;92.21;99548.03;6211741;23;20005;-72
2023/09/21 05:34:19;;;;;;;9.23;3.05;;;;;;;17.69;91.11;99547.84;6211325;23;20012;-72
2023/09/21 05:36:46;;;;;;;9.18;3.35;;;;;;;17.70;91.33;99549.53;6212433;23;20514;-73
2023/09/21 05:39:17;;;;;;;7.88;3.20;;;;;;;17.71;92.30;99541.19;6183920;23;20074;-72
2023/09/21 05:41:47;;;;;;;11.68;3.15;;;;;;;17.73;91.79;99547.31;6211629;23;20426;-72
2023/09/21 05:44:13;;;;;;;7.85;3.10;;;;;;;17.75;91.78;99541.69;6212088;23;20411;-72
2023/09/21 05:46:39;;;;;;;10.10;3.10;;;;;;;17.75;92.81;99542.50;6211579;23;20056;-71
2023/09/21 05:49:05;;;;;;;9.57;3.38;;;;;;;17.78;91.91;99544.84;6210665;23;20402;-72
2023/09/21 05:51:32;;;;;;;6.13;2.58;;;;;;;17.80;92.33;99548.22;6184688;23;20005;-71
2023/09/21 05:53:57;;;;;;;9.20;3.30;;;;;;;17.81;92.55;99541.72;6212166;23;20080;-65
2023/09/21 05:56:23;;;;;;;11.60;3.40;;;;;;;17.84;93.77;99545.13;6211291;23;20066;-66
2023/09/21 05:58:48;;;;;;;6.53;3.13;;;;;;;17.84;93.53;99545.13;6209742;23;20012;-67
2023/09/21 06:01:13;;;;;;;11.70;3.13;;;;;;;17.84;95.52;99545.94;6210845;23;20047;-67
2023/09/21 06:03:39;;;;;;;13.52;3.70;;;;;;;17.82;94.37;99554.28;6184493;23;20319;-69
2023/09/21 06:06:07;;;;;;;12.85;3.92;;;;;;;17.82;96.68;99553.47;6211240;23;20001;-65
2023/09/21 06:08:32;;;;;;;8.13;2.58;;;;;;;17.79;97.34;99546.53;6210868;23;20043;-67
2023/09/21 06:10:58;;;;;;;10.70;3.40;;;;;;;17.77;98.60;99555.91;6211508;23;20365;-67
2023/09/21 06:13:25;;;;;;;8.98;3.40;;;;;;;17.74;99.23;99550.84;6209945;23;20063;-66
2023/09/21 06:15:50;;;;;;;9.57;3.17;;;;;;;17.70;98.20;99561.28;6211031;23;20008;-66
2023/09/21 06:18:17;;;;;;;9.55;3.67;;;;;;;17.64;99.56;99553.88;6183656;23;20423;-66
2023/09/21 06:20:43;;;;;;;9.00;2.75;;;;;;;17.60;100.00;99556.13;6211792;23;20423;-67
2023/09/21 06:23:08;;;;;;;13.30;3.38;;;;;;;17.53;100.00;99552.50;6184711;23;20121;-66
2023/09/21 06:25:34;;;;;;;10.70;3.40;;;;;;;17.52;100.00;99563.53;6210336;23;20036;-66
2023/09/21 06:28:00;;;;;;;11.05;3.55;;;;;;;17.48;100.00;99557.63;6211360;23;20342;-68
2023/09/21 06:30:25;;;;;;;11.73;3.42;;;;;;;17.43;100.00;99552.78;6157842;23;20037;-66
2023/09/21 06:32:50;;;;;;;13.18;3.40;;;;;;;17.40;100.00;99555.88;6153189;23;20005;-68
2023/09/21 06:35:16;;;;;;;13.25;3.50;;;;;;;17.38;100.00;99565.22;6152169;23;20001;-66
2023/09/21 06:37:41;;;;;;;10.40;3.42;;;;;;;17.36;100.00;99564.59;6152507;23;20028;-66
2023/09/21 06:40:08;;;;;;;12.68;3.25;;;;;;;17.33;100.00;99565.81;6152818;23;20005;-66
2023/09/21 06:42:34;;;;;;;10.57;3.45;;;;;;;17.29;100.00;99565.34;6151104;23;20009;-66
2023/09/21 06:44:59;;;;;;;12.95;3.40;;;;;;;17.27;100.00;99553.81;6152520;23;20116;-66
2023/09/21 06:47:28;;;;;;;12.70;3.72;;;;;;;17.26;100.00;99570.28;6151502;23;20424;-67
2023/09/21 06:49:54;;;;;;;12.13;3.80;;;;;;;17.24;100.00;99573.19;6151392;23;20013;-66
2023/09/21 06:52:21;;;;;;;13.45;3.58;;;;;;;17.21;100.00;99580.91;6151405;23;20005;-67
2023/09/21 06:54:47;;;;;;;10.57;3.78;;;;;;;17.19;100.00;99588.38;6150801;23;20399;-68
2023/09/21 06:57:13;;;;;;;12.80;3.70;;;;;;;17.15;100.00;99590.63;6151663;23;20542;-67
2023/09/21 06:59:38;;;;;;;11.52;3.83;;;;;;;17.12;100.00;99586.41;6151966;23;20104;-67
2023/09/21 07:02:04;;;;;;;14.13;4.20;;;;;;;17.06;100.00;99584.44;6151490;23;20014;-67
2023/09/21 07:04:33;;;;;;;14.55;4.30;;;;;;;16.99;100.00;99591.63;6152320;23;20025;-68
2023/09/21 07:07:04;;;;;;;15.18;4.80;;;;;;;16.95;100.00;99584.88;6152047;23;20032;-67
2023/09/21 07:09:30;;;;;;;14.85;4.28;;;;;;;16.88;100.00;99582.09;6149847;23;20005;-66
2023/09/21 07:11:55;;;;;;;14.18;3.95;;;;;;;16.83;100.00;99581.75;6151162;23;20088;-67
2023/09/21 07:14:21;;;;;;;14.20;4.78;;;;;;;16.77;100.00;99574.34;6149185;23;20036;-68
2023/09/21 07:16:47;;;;;;;12.68;4.32;;;;;;;16.76;100.00;99565.38;6151345;23;20005;-66
2023/09/21 07:19:12;;;;;;;14.85;4.25;;;;;;;16.74;100.00;99572.84;6150834;23;20032;-67
2023/09/21 07:21:38;;;;;;;11.15;3.65;;;;;;;16.73;100.00;99563.00;6150437;23;20015;-67
2023/09/21 07:24:07;;;;;;;13.90;4.10;;;;;;;16.74;100.00;99572.84;6151268;23;20036;-69
2023/09/21 07:26:33;;;;;;;13.80;3.80;;;;;;;16.75;100.00;99562.81;6150813;23;20009;-67
2023/09/21 07:29:04;;;;;;;11.73;4.20;;;;;;;16.74;100.00;99572.84;6160901;23;20482;-67
2023/09/21 07:31:32;;;;;;;11.48;3.67;;;;;;;16.76;100.00;99570.81;6212583;23;20005;-67
2023/09/21 07:34:01;;;;;;;10.13;4.13;;;;;;;16.76;100.00;99570.81;6211823;23;20068;-66
2023/09/21 07:36:26;;;;;;;11.73;3.47;;;;;;;16.77;100.00;99567.03;6211965;23;20086;-66
2023/09/21 07:38:53;;;;;;;11.80;4.03;;;;;;;16.78;100.00;99567.91;6185786;23;20686;-67
2023/09/21 07:41:19;;;;;;;15.57;4.07;;;;;;;16.76;100.00;99584.38;6184948;23;20150;-66
2023/09/21 07:43:45;;;;;;;11.02;3.67;;;;;;;16.75;100.00;99582.69;6185519;23;20008;-66
2023/09/21 07:46:11;;;;;;;12.20;4.03;;;;;;;16.74;100.00;99585.56;6212258;23;20020;-67
2023/09/21 07:48:36;;;;;;;11.18;3.88;;;;;;;16.75;100.00;99590.81;6185452;23;20042;-66
2023/09/21 07:51:06;;;;;;;11.02;3.90;;;;;;;16.75;100.00;99593.53;6212175;23;20047;-65
2023/09/21 07:53:32;;;;;;;11.65;3.88;;;;;;;16.74;100.00;99589.13;6212316;23;20065;-66
2023/09/21 07:56:08;;;;;;;13.48;4.60;;;;;;;16.74;100.00;99589.13;6211623;23;20453;-66
2023/09/21 07:58:33;;;;;;;12.73;4.03;;;;;;;16.75;100.00;99590.81;6185045;23;20009;-66
2023/09/21 08:01:00;;;;;;;12.80;4.40;;;;;;;16.74;100.00;99593.72;6211642;23;20142;-66
2023/09/21 08:03:26;;;;;;;15.48;4.70;;;;;;;16.72;100.00;99596.63;6184849;23;20002;-66
2023/09/21 08:05:55;;;;;;;12.05;3.95;;;;;;;16.71;100.00;99600.34;6212073;23;20008;-66
2023/09/21 08:08:21;;;;;;;12.50;4.05;;;;;;;16.71;100.00;99610.38;6185165;23;20079;-66
2023/09/21 08:10:47;;;;;;;16.70;4.38;;;;;;;16.70;100.00;99606.78;6212034;23;20005;-66
2023/09/21 08:13:12;;;;;;;16.42;5.10;;;;;;;16.70;100.00;99617.63;6211443;23;20000;-66
2023/09/21 08:15:38;;;;;;;13.68;4.60;;;;;;;16.69;100.00;99610.56;6210475;23;20015;-66
2023/09/21 08:18:07;;;;;;;16.60;4.72;;;;;;;16.65;100.00;99606.50;6211583;23;20016;-67
2023/09/21 08:20:32;;;;;;;11.77;4.23;;;;;;;16.61;100.00;99610.59;6184463;23;20009;-66
2023/09/21 08:22:58;;;;;;;12.82;4.13;;;;;;;16.59;100.00;99620.81;6210668;23;20543;-67
2023/09/21 08:25:23;;;;;;;11.05;3.90;;;;;;;16.56;100.00;99623.84;6183427;23;20008;-66
2023/09/21 08:27:48;;;;;;;10.77;4.00;;;;;;;16.54;100.00;99639.47;6211589;23;20017;-66
2023/09/21 08:30:15;;;;;;;9.90;3.22;;;;;;;16.53;100.00;99638.66;6185351;23;20040;-67
2023/09/21 08:32:41;;;;;;;8.55;3.75;;;;;;;16.50;100.00;99640.88;6212600;23;20370;-66
2023/09/21 08:35:10;;;;;;;9.43;3.40;;;;;;;16.46;100.00;99643.09;6212114;23;20000;-66
2023/09/21 08:37:36;;;;;;;10.82;3.50;;;;;;;16.43;100.00;99655.16;6185221;23;20079;-66
2023/09/21 08:40:02;;;;;;;8.77;3.58;;;;;;;16.39;100.00;99648.41;6211925;23;20005;-66
2023/09/21 08:42:28;;;;;;;6.85;2.97;;;;;;;16.37;100.00;99652.31;6210459;23;20001;-66
2023/09/21 08:44:53;;;;;;;9.30;3.30;;;;;;;16.32;100.00;99660.97;6211326;23;20005;-67
2023/09/21 08:47:19;;;;;;;9.88;3.65;;;;;;;16.28;100.00;99665.06;6210775;23;20005;-66
2023/09/21 08:49:47;;;;;;;10.73;3.28;;;;;;;16.24;100.00;99661.06;6211548;23;20005;-66
2023/09/21 08:52:13;;;;;;;8.40;3.30;;;;;;;16.22;100.00;99663.06;6211450;23;20004;-67
2023/09/21 08:54:42;;;;;;;12.98;3.88;;;;;;;16.19;100.00;99666.16;6211198;23;20005;-66
2023/09/21 08:57:11;;;;;;;10.95;3.45;;;;;;;16.19;100.00;99671.56;6184314;23;20004;-67
2023/09/21 08:59:41;;;;;;;11.43;3.03;;;;;;;16.15;100.00;99664.81;6210506;23;20015;-66
2023/09/21 09:02:13;;;;;;;8.23;3.10;;;;;;;16.08;100.00;99664.69;6210637;23;20030;-67
2023/09/21 09:04:42;;;;;;;7.22;2.65;;;;;;;16.04;100.00;99658.75;6210908;23;20391;-67
2023/09/21 09:07:08;;;;;;;10.98;2.55;;;;;;;16.02;100.00;99654.56;6210998;23;20034;-67
2023/09/21 09:09:34;;;;;;;13.90;3.53;;;;;;;15.98;100.00;99643.22;6211302;23;20219;-68
2023/09/21 09:11:59;;;;;;;7.55;2.28;;;;;;;16.00;100.00;99648.47;6183835;23;20001;-66
2023/09/21 09:14:25;;;;;;;7.60;2.45;;;;;;;15.99;100.00;99666.59;6209221;23;20008;-68
2023/09/21 09:16:51;;;;;;;4.20;2.00;;;;;;;15.98;100.00;99664.91;6209296;23;20491;-66
2023/09/21 09:19:16;;;;;;;5.32;2.10;;;;;;;15.99;100.00;99669.31;6211052;23;20007;-70
2023/09/21 09:21:41;;;;;;;5.63;2.03;;;;;;;15.98;100.00;99670.31;6211321;23;20395;-66
2023/09/21 09:24:08;;;;;;;11.45;2.50;;;;;;;15.96;100.00;99666.97;6185194;23;20051;-73
2023/09/21 09:26:35;;;;;;;7.05;2.25;;;;;;;15.93;100.00;99623.97;6212436;23;20446;-72
2023/09/21 09:29:09;;;;;;;3.63;1.83;;;;;;;15.95;100.00;99651.72;6213429;23;20449;-73
2023/09/21 09:31:40;;;;;;;6.55;2.13;;;;;;;15.94;100.00;99650.00;6213793;23;20055;-72
2023/09/21 09:34:05;;;;;;;5.22;1.88;;;;;;;15.96;100.00;99645.28;6213116;23;20008;-72
2023/09/21 09:36:35;;;;;;;4.90;2.00;;;;;;;15.94;100.00;99631.03;6212819;23;20395;-72
2023/09/21 09:39:01;;;;;;;7.05;2.88;;;;;;;15.95;100.00;99632.75;6213209;23;20484;-73
2023/09/21 09:41:28;;;;;;;4.47;1.77;;;;;;;15.98;100.00;99632.38;6186757;23;20486;-72
2023/09/21 09:43:56;;;;;;;8.38;2.50;;;;;;;16.02;100.00;99633.72;6213290;23;20000;-72
2023/09/21 09:46:25;;;;;;;6.97;3.00;;;;;;;16.04;100.00;99637.09;6213536;23;20430;-72
2023/09/21 09:48:51;;;;;;;9.23;3.00;;;;;;;16.04;100.00;99633.53;6213783;23;20734;-72
2023/09/21 09:51:26;;;;;;;10.63;2.95;;;;;;;16.11;100.00;99631.81;6213652;23;20038;-72
2023/09/21 09:53:53;;;;;;;6.45;2.70;;;;;;;16.15;100.00;99635.00;6213386;23;20004;-72
2023/09/21 09:56:19;;;;;;;7.90;2.40;;;;;;;16.18;100.00;99632.78;6213521;23;20004;-72
2023/09/21 09:58:47;;;;;;;9.00;2.92;;;;;;;16.21;100.00;99628.88;6213009;23;20004;-72
2023/09/21 10:01:12;;;;;;;8.45;3.00;;;;;;;16.25;100.00;99619.34;6213658;23;20435;-72
2023/09/21 10:03:43;;;;;;;9.63;3.13;;;;;;;16.27;100.00;99630.88;6212918;23;20076;-72
2023/09/21 10:06:09;;;;;;;7.80;2.92;;;;;;;16.30;100.00;99619.66;6186690;23;20008;-73
2023/09/21 10:08:38;;;;;;;7.60;3.05;;;;;;;16.32;100.00;99623.03;6186650;23;20012;-72
2023/09/21 10:11:07;;;;;;;12.82;3.20;;;;;;;16.36;100.00;99607.25;6213462;23;20008;-71
2023/09/21 10:13:34;;;;;;;10.48;3.58;;;;;;;16.38;100.00;99606.06;6213049;23;20012;-72
2023/09/21 10:16:03;;;;;;;8.70;3.42;;;;;;;16.42;100.00;99604.63;6213509;23;20005;-72
2023/09/21 10:18:35;;;;;;;10.73;3.30;;;;;;;16.50;100.00;99606.47;6186412;23;20020;-72
2023/09/21 10:21:31;;;;;;;12.15;4.10;;;;;;;16.55;100.00;99608.63;6186783;23;20012;-73
2023/09/21 10:24:08;;;;;;;10.82;4.20;;;;;;;16.61;100.00;99602.47;6178742;23;20338;-72
2023/09/21 10:26:35;;;;;;;17.85;5.82;;;;;;;16.69;100.00;99607.84;6213479;23;20008;-71
2023/09/21 10:29:04;;;;;;;14.90;4.95;;;;;;;16.74;100.00;99608.13;6213053;23;20013;-72
2023/09/21 10:31:33;;;;;;;14.70;5.00;;;;;;;16.81;100.00;99605.53;6186952;23;20418;-72
2023/09/21 10:33:58;;;;;;;12.35;4.30;;;;;;;16.85;100.00;99606.00;6213135;23;20032;-69
2023/09/21 10:36:27;;;;;;;13.15;4.22;;;;;;;16.91;100.00;99599.84;6185765;23;20453;-66
2023/09/21 10:39:13;;;;;;;12.23;3.97;;;;;;;16.95;100.00;99603.88;6213462;23;20419;-65
2023/09/21 10:41:44;;;;;;;10.80;4.00;;;;;;;16.99;100.00;99591.63;6213244;23;20062;-66
2023/09/21 10:44:11;;;;;;;10.73;3.50;;;;;;;17.02;100.00;99583.13;6213002;23;19996;-66
2023/09/21 10:46:37;;;;;;;12.18;3.42;;;;;;;17.08;100.00;99584.25;6213139;23;20083;-66
2023/09/21 10:49:09;;;;;;;10.75;3.38;;;;;;;17.13;100.00;99581.84;6213013;23;20028;-68
2023/09/21 10:51:43;;;;;;;13.13;3.40;;;;;;;17.19;100.00;99574.78;6213000;23;20008;-67
2023/09/21 10:54:12;;;;;;;10.50;3.35;;;;;;;17.23;100.00;99573.38;6212869;23;20004;-66
2023/09/21 10:56:38;;;;;;;11.05;3.33;;;;;;;17.24;100.00;99575.91;6213168;23;20001;-66
2023/09/21 10:59:06;;;;;;;9.90;3.35;;;;;;;17.26;100.00;99564.88;6212592;23;20078;-67
2023/09/21 11:01:32;;;;;;;12.60;3.13;;;;;;;17.27;100.00;99552.97;6186172;23;20067;-66
2023/09/21 11:03:58;;;;;;;5.80;2.70;;;;;;;17.30;100.00;99555.31;6212592;23;20004;-66
2023/09/21 11:06:25;;;;;;;8.05;3.05;;;;;;;17.32;100.00;99558.72;6212788;23;20009;-66
2023/09/21 11:08:52;;;;;;;7.10;2.85;;;;;;;17.36;100.00;99549.13;6213055;23;20020;-66
2023/09/21 11:11:21;;;;;;;12.23;3.65;;;;;;;17.41;100.00;99549.41;6186251;23;20012;-66
2023/09/21 11:13:51;;;;;;;12.07;3.95;;;;;;;17.42;100.00;99548.41;6212352;23;20453;-66
2023/09/21 11:16:17;;;;;;;9.93;2.97;;;;;;;17.41;100.00;99543.97;6212844;23;20005;-66
2023/09/21 11:18:43;;;;;;;10.25;3.17;;;;;;;17.42;100.00;99540.25;6212650;23;20377;-67
2023/09/21 11:21:09;;;;;;;10.18;3.35;;;;;;;17.43;100.00;99539.19;6185970;23;20012;-66
2023/09/21 11:23:36;;;;;;;9.43;3.42;;;;;;;17.46;100.00;99527.94;6212454;23;20271;-67
2023/09/21 11:26:02;;;;;;;9.85;3.28;;;;;;;17.47;100.00;99539.69;6186083;23;20000;-67
2023/09/21 11:28:28;;;;;;;8.10;3.03;;;;;;;17.46;100.00;99576.00;6212365;23;20008;-66